Time;durP1;ratioP1;P1;durP2;ratioP2;P2;SDS_P1;SDS_P2;PMS_P1;PMS_P2;Temp;Humidity;BMP_temperature;BMP_pressure;BME280_temperature;BME280_humidity;BME280_pressure;Samples;Min_cycle;Max_cycle;Signal;HPM_P1;HPM_P2
2023/01/06 00:01:48;;;;;;;3.20;1.05;;;;;;;3.32;63.96;100626.56;30982944;28;96584;-67
2023/01/06 00:16:49;;;;;;;1.52;0.80;;;;;;;2.96;64.30;100643.22;30980899;28;96790;-68
2023/01/06 00:31:49;;;;;;;2.03;0.85;;;;;;;2.73;65.57;100650.13;30980374;28;96946;-67
2023/01/06 00:46:50;;;;;;;2.10;1.13;;;;;;;2.46;66.23;100677.38;30978901;28;96957;-67
2023/01/06 01:01:53;;;;;;;3.38;1.52;;;;;;;2.19;66.38;100704.63;30977993;28;96622;-68
2023/01/06 01:16:53;;;;;;;2.90;1.13;;;;;;;2.07;67.49;100718.59;30975359;28;97179;-67
2023/01/06 01:31:54;;;;;;;2.60;1.10;;;;;;;1.88;67.78;100725.06;30975701;28;97396;-67
2023/01/06 01:46:54;;;;;;;4.03;1.23;;;;;;;2.07;68.84;100739.63;30974335;28;97082;-67
2023/01/06 02:01:55;;;;;;;3.50;1.13;;;;;;;1.93;67.72;100743.13;30973624;28;96755;-67
2023/01/06 02:17:27;;;;;;;2.65;1.52;;;;;;;1.72;68.55;100755.91;30972250;28;96769;-68
2023/01/06 02:32:49;;;;;;;5.18;1.38;;;;;;;1.48;69.38;100754.75;30985576;28;96629;-67
2023/01/06 02:48:39;;;;;;;4.65;1.40;;;;;;;1.38;70.08;100751.03;30990489;28;96781;-67
2023/01/06 03:03:44;;;;;;;5.00;1.88;;;;;;;1.23;69.97;100744.97;30989588;28;97504;-67
2023/01/06 03:18:47;;;;;;;4.45;2.00;;;;;;;1.14;70.37;100746.38;30987707;28;97103;-67
2023/01/06 03:34:13;;;;;;;5.20;1.90;;;;;;;1.11;71.23;100756.22;30986272;28;96676;-67
2023/01/06 03:49:22;;;;;;;6.32;2.25;;;;;;;1.28;71.27;100763.03;30980093;28;96886;-68
2023/01/06 04:04:22;;;;;;;5.70;2.65;;;;;;;1.40;71.53;100753.56;30983674;28;97459;-68
2023/01/06 04:19:23;;;;;;;4.40;2.20;;;;;;;1.76;71.53;100750.34;30981823;28;97378;-68
2023/01/06 04:34:23;;;;;;;5.97;2.97;;;;;;;1.94;71.36;100729.94;30980080;28;97453;-68
2023/01/06 04:49:24;;;;;;;4.63;2.30;;;;;;;2.14;71.28;100730.38;30978161;28;97232;-67
2023/01/06 05:04:24;;;;;;;7.18;2.90;;;;;;;2.26;71.22;100736.59;30977137;28;96663;-67
2023/01/06 05:19:24;;;;;;;8.18;2.92;;;;;;;2.34;71.43;100748.28;30976395;28;96785;-67
2023/01/06 05:34:25;;;;;;;5.43;3.00;;;;;;;2.25;71.09;100748.91;30974746;28;97491;-67
2023/01/06 05:49:25;;;;;;;8.13;3.08;;;;;;;2.15;71.19;100734.69;30971473;28;96934;-68
2023/01/06 06:04:26;;;;;;;11.40;4.10;;;;;;;1.99;71.69;100743.59;30980608;28;97163;-67
2023/01/06 06:19:26;;;;;;;13.80;7.18;;;;;;;2.18;71.97;100750.25;30991760;28;96859;-68
2023/01/06 06:34:26;;;;;;;8.77;4.47;;;;;;;2.22;71.69;100759.63;30992461;28;96761;-67
2023/01/06 06:49:27;;;;;;;11.15;5.88;;;;;;;2.31;71.83;100753.75;30990067;28;96909;-67
2023/01/06 07:04:27;;;;;;;10.30;4.15;;;;;;;2.22;72.12;100749.09;30988499;28;96730;-67
2023/01/06 07:19:28;;;;;;;6.97;3.33;;;;;;;2.25;72.34;100758.59;30986087;28;97739;-67
2023/01/06 07:34:28;;;;;;;5.15;2.72;;;;;;;2.31;72.07;100759.03;30986142;28;96629;-67
2023/01/06 07:49:28;;;;;;;8.00;3.00;;;;;;;2.43;72.34;100740.72;30983738;28;96827;-67
2023/01/06 08:04:29;;;;;;;5.20;2.88;;;;;;;2.50;72.49;100723.56;30981209;28;97177;-67
2023/01/06 08:19:29;;;;;;;9.73;2.83;;;;;;;2.67;71.77;100718.00;30979886;28;97113;-67
2023/01/06 08:34:30;;;;;;;4.35;2.40;;;;;;;3.14;71.29;100712.13;30977921;28;97114;-66
2023/01/06 08:49:30;;;;;;;6.40;2.58;;;;;;;3.54;70.52;100685.53;30975049;28;96648;-65
2023/01/06 09:04:30;;;;;;;2.35;1.95;;;;;;;4.33;69.57;100683.19;30975951;28;96822;-66
2023/01/06 09:19:31;;;;;;;4.05;2.47;;;;;;;5.48;67.59;100700.59;30974056;28;96601;-66
2023/01/06 09:34:31;;;;;;;9.13;2.30;;;;;;;6.60;65.65;100675.41;30976185;28;96657;-67
2023/01/06 09:49:38;;;;;;;3.80;2.17;;;;;;;4.87;66.32;100665.78;30994236;28;97406;-66
2023/01/06 10:04:38;;;;;;;5.18;1.83;;;;;;;4.58;67.15;100668.09;30993328;28;97534;-67
2023/01/06 10:20:02;;;;;;;4.78;2.33;;;;;;;4.73;67.92;100627.28;30991964;28;96953;-67
2023/01/06 10:35:02;;;;;;;4.03;2.20;;;;;;;5.12;66.66;100610.16;30991377;28;96666;-66
2023/01/06 10:50:03;;;;;;;8.30;2.63;;;;;;;4.95;67.47;100583.34;30988797;28;96928;-66
2023/01/06 11:05:04;;;;;;;5.90;2.55;;;;;;;5.11;67.38;100543.28;30988126;28;97182;-67
2023/01/06 11:20:04;;;;;;;5.93;3.05;;;;;;;5.62;67.29;100510.03;30987192;28;96860;-66
2023/01/06 11:35:06;;;;;;;10.65;4.03;;;;;;;5.49;67.82;100475.84;30984890;28;96674;-68
2023/01/06 11:50:18;;;;;;;7.35;3.28;;;;;;;5.61;67.69;100467.88;30982917;28;97143;-66
2023/01/06 12:05:33;;;;;;;8.77;4.20;;;;;;;5.45;68.87;100431.34;30981544;28;96751;-66
2023/01/06 12:20:37;;;;;;;10.05;5.30;;;;;;;5.33;69.62;100406.78;30980374;28;97600;-66
2023/01/06 12:35:40;;;;;;;8.43;4.80;;;;;;;5.23;70.38;100396.19;30977924;28;96669;-66
2023/01/06 12:50:47;;;;;;;9.95;5.65;;;;;;;5.31;71.44;100361.19;30977199;28;96873;-66
2023/01/06 13:05:59;;;;;;;11.95;5.55;;;;;;;5.55;71.79;100347.66;30977701;28;97643;-66
2023/01/06 13:21:14;;;;;;;13.18;6.45;;;;;;;5.54;72.81;100335.44;30974898;28;97353;-68
2023/01/06 13:36:33;;;;;;;12.48;7.43;;;;;;;5.54;73.16;100340.72;30974986;28;96669;-69
2023/01/06 13:51:36;;;;;;;12.07;6.07;;;;;;;5.58;73.47;100326.25;30974004;28;97273;-70
2023/01/06 14:06:36;;;;;;;15.95;6.32;;;;;;;5.85;73.14;100306.25;30971882;28;97488;-68
2023/01/06 14:21:37;;;;;;;14.05;6.32;;;;;;;5.78;74.60;100297.22;30975739;28;97312;-68
2023/01/06 14:36:38;;;;;;;11.50;7.05;;;;;;;6.02;74.08;100273.91;30992485;28;97246;-68
2023/01/06 14:51:42;;;;;;;18.35;9.05;;;;;;;5.85;75.14;100282.47;30991806;28;97172;-70
2023/01/06 15:06:55;;;;;;;13.27;8.93;;;;;;;5.63;75.96;100291.47;30990344;28;97212;-66
2023/01/06 15:21:56;;;;;;;17.55;10.18;;;;;;;5.77;76.34;100291.09;30989607;28;97493;-68
2023/01/06 15:37:00;;;;;;;20.35;10.20;;;;;;;5.96;76.11;100290.31;30986001;28;96865;-68
2023/01/06 15:52:06;;;;;;;23.03;11.00;;;;;;;5.95;77.25;100290.44;30985548;28;96766;-70
2023/01/06 16:07:39;;;;;;;16.15;8.85;;;;;;;6.16;77.23;100314.13;30984185;28;96691;-67
2023/01/06 16:22:45;;;;;;;16.35;9.45;;;;;;;6.30;78.35;100304.94;30983140;28;96686;-66
2023/01/06 16:37:45;;;;;;;21.70;10.90;;;;;;;6.46;78.86;100302.56;30980565;28;96846;-67
2023/01/06 16:53:18;;;;;;;20.25;10.05;;;;;;;6.60;79.45;100306.59;30978045;28;97373;-66
2023/01/06 17:08:30;;;;;;;21.17;10.88;;;;;;;6.60;79.50;100311.88;30976344;28;96694;-69
2023/01/06 17:23:38;;;;;;;14.00;8.43;;;;;;;6.78;80.14;100326.06;30976038;28;96610;-68
2023/01/06 17:38:40;;;;;;;9.60;4.60;;;;;;;7.40;79.93;100338.03;30974088;28;96569;-67
2023/01/06 18:09:22;;;;;;;9.03;4.87;;;;;;;7.84;79.25;100348.00;30996734;28;96621;-67
2023/01/06 18:24:32;;;;;;;8.07;4.70;;;;;;;7.92;78.89;100362.16;30994460;28;96837;-68
2023/01/06 18:39:46;;;;;;;7.93;4.30;;;;;;;7.96;78.74;100378.63;30993002;28;96628;-67
2023/01/06 18:54:47;;;;;;;8.33;3.13;;;;;;;8.01;78.69;100386.13;30989462;28;96718;-66
2023/01/06 19:09:48;;;;;;;8.63;3.33;;;;;;;8.06;78.69;100390.00;30989413;28;96654;-68
2023/01/06 19:24:56;;;;;;;5.87;3.10;;;;;;;8.07;78.66;100396.16;30988906;28;96676;-67
2023/01/06 19:39:56;;;;;;;5.60;3.00;;;;;;;8.13;78.05;100399.06;30986809;28;96990;-66
2023/01/06 19:55:23;;;;;;;6.93;3.05;;;;;;;8.05;78.17;100414.03;30984853;28;97205;-69
2023/01/06 20:10:23;;;;;;;5.23;2.13;;;;;;;8.18;77.84;100429.63;30984013;28;97020;-68
2023/01/06 20:25:24;;;;;;;10.25;2.83;;;;;;;8.03;77.33;100443.38;30981403;28;97343;-66
2023/01/06 20:40:24;;;;;;;3.97;2.65;;;;;;;7.93;77.36;100463.84;30979581;28;97522;-68
2023/01/06 20:55:24;;;;;;;6.03;2.30;;;;;;;7.69;77.29;100478.41;30979746;28;96737;-68
2023/01/06 21:10:25;;;;;;;4.72;2.40;;;;;;;7.61;77.84;100487.09;30978203;28;97280;-66
2023/01/06 21:25:26;;;;;;;3.70;2.30;;;;;;;7.76;77.90;100511.34;30977056;28;96948;-68
2023/01/06 21:40:26;;;;;;;5.18;2.58;;;;;;;7.75;77.16;100517.63;30974687;28;96678;-69
2023/01/06 21:55:27;;;;;;;4.60;2.50;;;;;;;7.62;77.31;100533.00;30974936;28;96768;-68
2023/01/06 22:10:27;;;;;;;6.32;2.85;;;;;;;7.55;77.55;100539.88;30972611;28;98239;-68
2023/01/06 22:25:28;;;;;;;5.97;2.50;;;;;;;7.25;77.18;100550.47;30973296;28;96647;-66
2023/01/06 22:40:28;;;;;;;5.75;2.58;;;;;;;7.14;77.98;100555.94;30973528;28;97310;-67
2023/01/06 22:55:29;;;;;;;3.97;2.20;;;;;;;6.99;77.47;100560.78;30991892;28;96776;-66
2023/01/06 23:10:29;;;;;;;5.35;2.88;;;;;;;6.88;77.67;100580.28;30991400;28;96678;-66
2023/01/06 23:25:30;;;;;;;5.43;3.83;;;;;;;6.62;78.37;100582.59;30989921;28;96624;-67
2023/01/06 23:40:30;;;;;;;6.55;3.97;;;;;;;6.38;78.32;100575.84;30988636;28;96650;-66
2023/01/06 23:55:30;;;;;;;5.43;3.50;;;;;;;6.19;78.35;100583.69;30985631;28;97247;-66
